createdAt,value
2022-08-29T00:00:18.910Z,6.02
2022-08-29T00:01:25.106Z,6.14
2022-08-29T00:02:30.585Z,6.11
2022-08-29T00:03:38.549Z,5.41
2022-08-29T00:04:46.201Z,5.75
2022-08-29T00:05:51.660Z,6.06
2022-08-29T00:06:55.957Z,5.17
2022-08-29T00:08:02.012Z,5.93
2022-08-29T00:09:05.465Z,5.51
2022-08-29T00:10:10.697Z,5.91
2022-08-29T00:11:14.846Z,5.52
2022-08-29T00:12:20.216Z,5.65
2022-08-29T00:13:25.852Z,5.94
2022-08-29T00:14:32.590Z,5.88
2022-08-29T00:15:44.350Z,6.07
2022-08-29T00:16:43.650Z,6.12
2022-08-29T00:17:47.684Z,5.65
2022-08-29T00:18:51.404Z,5.88
2022-08-29T00:19:55.089Z,6.01
2022-08-29T00:21:00.263Z,6.14
2022-08-29T00:22:07.016Z,5.94
2022-08-29T00:23:10.261Z,5.47
2022-08-29T00:24:15.107Z,5.71
2022-08-29T00:25:18.768Z,5.53
2022-08-29T00:26:26.661Z,6.27
2022-08-29T00:27:38.168Z,5.16
2022-08-29T00:28:42.138Z,5.23
2022-08-29T00:29:47.951Z,5.02
2022-08-29T00:30:52.386Z,5.49
2022-08-29T00:31:55.832Z,5.29
2022-08-29T00:32:59.619Z,5.21
2022-08-29T00:34:04.359Z,6.33
2022-08-29T00:36:26.343Z,6.51
2022-08-29T00:37:32.041Z,5.92
2022-08-29T00:38:35.777Z,5.58
2022-08-29T00:39:46.394Z,5.73
2022-08-29T00:41:55.281Z,5.21
2022-08-29T00:43:02.589Z,5.57
2022-08-29T00:44:07.142Z,5.31
2022-08-29T00:45:13.206Z,5.55
2022-08-29T00:46:20.183Z,5.01
2022-08-29T00:47:27.826Z,5.12
2022-08-29T00:48:32.332Z,5.43
2022-08-29T00:49:39.948Z,5.89
2022-08-29T00:50:55.844Z,5.36
2022-08-29T00:52:04.295Z,5.71
2022-08-29T00:54:27.637Z,5.34
2022-08-29T00:55:34.662Z,5.57
2022-08-29T00:56:40.416Z,5.24
2022-08-29T00:57:50.677Z,5.70
2022-08-29T00:59:10.571Z,5.19
2022-08-29T01:00:19.461Z,5.05
2022-08-29T01:01:25.828Z,5.66
2022-08-29T01:02:28.703Z,5.78
2022-08-29T01:03:35.929Z,5.36
2022-08-29T01:04:41.810Z,5.67
2022-08-29T01:05:47.790Z,5.36
2022-08-29T01:06:54.753Z,5.36
2022-08-29T01:08:01.852Z,5.55
2022-08-29T01:09:12.580Z,5.19
2022-08-29T01:10:20.263Z,5.64
2022-08-29T01:11:43.242Z,5.21
2022-08-29T01:12:48.347Z,5.42
2022-08-29T01:13:53.249Z,6.09
2022-08-29T01:15:02.462Z,5.31
2022-08-29T01:16:10.379Z,5.38
2022-08-29T01:17:20.584Z,6.22
2022-08-29T01:18:28.002Z,5.16
2022-08-29T01:21:02.218Z,4.96
2022-08-29T01:22:19.199Z,5.59
2022-08-29T01:23:28.545Z,5.29
2022-08-29T01:24:40.165Z,5.67
2022-08-29T01:25:49.461Z,5.40
2022-08-29T01:26:52.566Z,5.26
2022-08-29T01:27:59.973Z,5.22
2022-08-29T01:29:05.645Z,5.36
2022-08-29T01:30:11.193Z,5.41
2022-08-29T01:31:20.009Z,5.57
2022-08-29T01:32:26.248Z,5.48
2022-08-29T01:33:46.015Z,4.94
2022-08-29T01:34:53.232Z,5.77
2022-08-29T01:35:56.506Z,5.77
2022-08-29T01:37:04.528Z,5.82
2022-08-29T01:38:07.908Z,5.74
2022-08-29T01:39:11.825Z,6.34
2022-08-29T01:40:16.106Z,5.55
2022-08-29T01:41:22.136Z,6.12
2022-08-29T01:42:26.398Z,5.88
2022-08-29T01:43:32.329Z,5.45
2022-08-29T01:44:36.672Z,6.14
2022-08-29T01:45:41.645Z,5.57
2022-08-29T01:46:47.280Z,5.33
2022-08-29T01:47:51.034Z,6.03
2022-08-29T01:48:54.653Z,5.68
2022-08-29T01:49:59.098Z,6.06
2022-08-29T01:51:01.736Z,5.91
2022-08-29T01:52:09.911Z,5.74
2022-08-29T01:53:20.734Z,5.57
2022-08-29T01:54:25.872Z,5.80
2022-08-29T01:55:29.643Z,5.74
2022-08-29T01:56:37.065Z,5.43
2022-08-29T01:57:42.156Z,6.30
2022-08-29T01:58:48.036Z,5.97
2022-08-29T01:59:52.498Z,5.81
2022-08-29T02:00:57.438Z,6.55
2022-08-29T02:02:11.227Z,6.01
2022-08-29T02:03:27.532Z,5.81
2022-08-29T02:04:32.112Z,6.11
2022-08-29T02:05:37.226Z,5.71
2022-08-29T02:06:44.753Z,5.61
2022-08-29T02:07:50.566Z,5.59
2022-08-29T02:08:57.431Z,6.12
2022-08-29T02:10:01.996Z,6.20
2022-08-29T02:11:09.244Z,6.29
2022-08-29T02:12:14.332Z,6.06
2022-08-29T02:13:19.722Z,6.27
2022-08-29T02:14:24.877Z,6.11
2022-08-29T02:15:27.879Z,6.43
2022-08-29T02:16:34.547Z,6.15
2022-08-29T02:17:39.491Z,6.61
2022-08-29T02:18:44.063Z,6.85
2022-08-29T02:19:46.906Z,6.68
2022-08-29T02:20:50.993Z,7.06
2022-08-29T02:21:54.689Z,6.29
2022-08-29T02:23:00.063Z,6.91
2022-08-29T02:24:24.028Z,6.35
2022-08-29T02:25:29.657Z,6.38
2022-08-29T02:26:33.741Z,6.33
2022-08-29T02:27:37.661Z,7.06
2022-08-29T02:28:42.352Z,6.28
2022-08-29T02:29:47.758Z,6.99
2022-08-29T02:30:56.622Z,6.62
2022-08-29T02:32:00.333Z,7.14
2022-08-29T02:33:06.212Z,6.65
2022-08-29T02:34:11.889Z,6.99
2022-08-29T02:35:16.187Z,7.02
2022-08-29T02:36:25.584Z,6.90
2022-08-29T02:37:35.062Z,6.82
2022-08-29T02:38:41.993Z,7.30
2022-08-29T02:39:46.719Z,6.68
2022-08-29T02:40:51.421Z,6.72
2022-08-29T02:41:54.510Z,7.38
2022-08-29T02:42:58.380Z,7.72
2022-08-29T02:44:03.452Z,6.96
2022-08-29T02:45:08.765Z,7.42
2022-08-29T02:46:18.950Z,7.52
2022-08-29T02:47:22.633Z,7.31
2022-08-29T02:49:41.447Z,7.06
2022-08-29T02:50:49.336Z,7.49
2022-08-29T02:51:56.496Z,7.07
2022-08-29T02:53:00.318Z,6.68
2022-08-29T02:54:03.516Z,7.63
2022-08-29T02:55:10.460Z,7.36
2022-08-29T02:56:15.113Z,7.27
2022-08-29T02:57:20.086Z,6.92
2022-08-29T02:58:25.569Z,7.68
2022-08-29T02:59:29.598Z,7.80
2022-08-29T03:00:34.592Z,6.94
2022-08-29T03:01:38.925Z,7.59
2022-08-29T03:02:45.541Z,7.69
2022-08-29T03:03:55.801Z,7.62
2022-08-29T03:05:02.300Z,7.22
2022-08-29T03:06:07.906Z,8.14
2022-08-29T03:07:11.490Z,7.32
2022-08-29T03:08:16.490Z,7.72
2022-08-29T03:09:23.759Z,7.73
2022-08-29T03:10:27.244Z,7.97
2022-08-29T03:11:34.509Z,8.16
2022-08-29T03:12:38.635Z,7.92
2022-08-29T03:13:42.249Z,7.57
2022-08-29T03:14:48.888Z,7.69
2022-08-29T03:15:52.600Z,8.12
2022-08-29T03:16:56.543Z,7.62
2022-08-29T03:18:05.062Z,7.74
2022-08-29T03:19:08.610Z,7.93
2022-08-29T03:20:17.260Z,7.88
2022-08-29T03:21:24.192Z,8.43
2022-08-29T03:22:32.025Z,7.81
2022-08-29T03:23:35.903Z,8.03
2022-08-29T03:24:38.878Z,7.71
2022-08-29T03:25:45.211Z,7.49
2022-08-29T03:26:56.640Z,7.39
2022-08-29T03:28:00.631Z,7.79
2022-08-29T03:29:03.804Z,7.87
2022-08-29T03:30:11.611Z,7.60
2022-08-29T03:31:17.682Z,7.88
2022-08-29T03:32:22.217Z,7.36
2022-08-29T03:33:25.257Z,7.74
2022-08-29T03:34:31.499Z,7.59
2022-08-29T03:35:35.177Z,7.72
2022-08-29T03:36:39.740Z,7.91
2022-08-29T03:37:43.123Z,7.40
2022-08-29T03:38:47.673Z,7.36
2022-08-29T03:39:55.189Z,7.67
2022-08-29T03:41:02.328Z,8.35
2022-08-29T03:42:09.157Z,8.34
2022-08-29T03:43:12.934Z,7.58
2022-08-29T03:44:16.965Z,7.75
2022-08-29T03:45:21.096Z,7.69
2022-08-29T03:46:30.435Z,8.08
2022-08-29T03:47:36.775Z,7.95
2022-08-29T03:48:40.554Z,7.30
2022-08-29T03:49:44.037Z,7.88
2022-08-29T03:50:47.917Z,7.42
2022-08-29T03:51:51.941Z,7.91
2022-08-29T03:52:57.639Z,8.26
2022-08-29T03:54:01.675Z,8.45
2022-08-29T03:55:07.127Z,7.91
2022-08-29T03:56:18.837Z,8.44
2022-08-29T03:57:18.742Z,8.50
2022-08-29T03:58:22.791Z,8.34
2022-08-29T03:59:27.863Z,7.66
2022-08-29T04:00:33.614Z,8.26
2022-08-29T04:01:37.642Z,7.78
2022-08-29T04:02:41.268Z,8.10
2022-08-29T04:03:44.771Z,8.87
2022-08-29T04:05:08.202Z,8.74
2022-08-29T04:06:12.450Z,8.49
2022-08-29T04:07:18.197Z,8.41
2022-08-29T04:08:23.635Z,8.03
2022-08-29T04:09:27.919Z,8.61
2022-08-29T04:10:35.662Z,8.21
2022-08-29T04:11:39.937Z,8.24
2022-08-29T04:12:43.728Z,7.65
2022-08-29T04:13:48.309Z,7.86
2022-08-29T04:14:51.924Z,8.18
2022-08-29T04:15:56.708Z,7.72
2022-08-29T04:17:00.420Z,8.04
2022-08-29T04:18:15.630Z,8.26
2022-08-29T04:19:22.565Z,7.88
2022-08-29T04:20:30.511Z,7.89
2022-08-29T04:21:35.935Z,7.58
2022-08-29T04:22:49.182Z,8.12
2022-08-29T04:23:53.173Z,7.78
2022-08-29T04:24:56.990Z,7.81
2022-08-29T04:26:19.148Z,7.36
2022-08-29T04:27:06.194Z,7.66
2022-08-29T04:28:14.804Z,7.81
2022-08-29T04:29:18.349Z,7.58
2022-08-29T04:30:28.652Z,8.06
2022-08-29T04:31:32.294Z,7.37
2022-08-29T04:32:36.221Z,7.59
2022-08-29T04:33:41.172Z,7.29
2022-08-29T04:34:47.124Z,7.29
2022-08-29T04:35:51.775Z,7.81
2022-08-29T04:36:56.678Z,7.81
2022-08-29T04:38:00.374Z,7.64
2022-08-29T04:39:04.328Z,7.92
2022-08-29T04:40:11.075Z,7.51
2022-08-29T04:41:15.004Z,7.23
2022-08-29T04:42:22.808Z,7.74
2022-08-29T04:43:26.482Z,8.12
2022-08-29T04:44:29.952Z,7.16
2022-08-29T04:45:37.274Z,7.37
2022-08-29T04:46:41.311Z,7.29
2022-08-29T04:47:46.346Z,7.28
2022-08-29T04:48:51.906Z,7.11
2022-08-29T04:49:58.775Z,6.69
2022-08-29T04:51:04.177Z,6.72
2022-08-29T04:52:11.045Z,7.14
2022-08-29T04:53:23.181Z,7.22
2022-08-29T04:54:26.632Z,6.89
2022-08-29T04:55:32.318Z,7.03
2022-08-29T04:56:44.315Z,6.33
2022-08-29T04:57:45.356Z,6.28
2022-08-29T04:58:51.472Z,6.38
2022-08-29T05:00:00.615Z,6.21
2022-08-29T05:01:04.716Z,6.47
2022-08-29T05:02:08.751Z,6.74
2022-08-29T05:03:16.452Z,6.52
2022-08-29T05:04:19.519Z,6.58
2022-08-29T05:05:22.747Z,6.86
2022-08-29T05:06:26.673Z,6.36
2022-08-29T05:07:29.468Z,6.44
2022-08-29T05:08:35.722Z,6.02
2022-08-29T05:09:41.051Z,6.26
2022-08-29T05:10:57.281Z,5.89
2022-08-29T05:12:00.927Z,5.97
2022-08-29T05:13:08.583Z,5.89
2022-08-29T05:14:14.885Z,5.84
2022-08-29T05:15:19.743Z,5.56
2022-08-29T05:16:25.477Z,5.16
2022-08-29T05:17:28.597Z,5.41
2022-08-29T05:18:31.962Z,5.51
2022-08-29T05:19:36.308Z,5.61
2022-08-29T05:20:41.896Z,4.96
2022-08-29T05:21:46.492Z,5.71
2022-08-29T05:22:51.898Z,5.27
2022-08-29T05:23:56.593Z,5.26
2022-08-29T05:24:59.640Z,5.24
2022-08-29T05:26:06.907Z,5.34
2022-08-29T05:27:15.111Z,5.48
2022-08-29T05:28:18.440Z,5.01
2022-08-29T05:29:21.596Z,5.12
2022-08-29T05:30:34.407Z,5.44
2022-08-29T05:31:32.935Z,5.06
2022-08-29T05:32:36.955Z,5.22
2022-08-29T05:33:41.213Z,5.45
2022-08-29T05:34:45.848Z,5.02
2022-08-29T05:35:50.949Z,4.88
2022-08-29T05:36:55.620Z,5.26
2022-08-29T05:38:00.502Z,5.12
2022-08-29T05:39:04.423Z,5.41
2022-08-29T05:40:12.147Z,5.16
2022-08-29T05:41:16.572Z,5.16
2022-08-29T05:42:25.758Z,5.59
2022-08-29T05:43:29.721Z,5.42
2022-08-29T05:44:35.664Z,5.04
2022-08-29T05:45:40.445Z,4.96
2022-08-29T05:46:47.104Z,5.14
2022-08-29T05:47:50.766Z,5.20
2022-08-29T05:48:55.558Z,5.13
2022-08-29T05:49:58.636Z,4.80
2022-08-29T05:51:02.648Z,4.65
2022-08-29T05:52:07.430Z,4.73
2022-08-29T05:53:16.668Z,5.16
2022-08-29T05:54:20.646Z,4.97
2022-08-29T05:55:26.189Z,5.00
2022-08-29T05:56:31.920Z,4.84
2022-08-29T05:57:38.950Z,4.80
2022-08-29T05:58:42.034Z,4.51
2022-08-29T05:59:46.091Z,4.74
2022-08-29T06:00:51.345Z,4.48
2022-08-29T06:01:55.209Z,4.49
2022-08-29T06:02:59.129Z,4.65
2022-08-29T06:04:05.476Z,4.93
2022-08-29T06:05:13.500Z,4.57
2022-08-29T06:06:21.448Z,4.83
2022-08-29T06:07:32.227Z,4.30
2022-08-29T06:08:38.466Z,4.42
2022-08-29T06:09:44.041Z,5.03
2022-08-29T06:10:48.105Z,4.84
2022-08-29T06:11:52.756Z,5.18
2022-08-29T06:12:56.366Z,5.01
2022-08-29T06:14:01.229Z,4.86
2022-08-29T06:15:07.443Z,4.98
2022-08-29T06:17:27.262Z,5.41
2022-08-29T06:18:35.538Z,4.98
2022-08-29T06:19:41.226Z,5.08
2022-08-29T06:20:45.796Z,5.26
2022-08-29T06:21:53.190Z,5.04
2022-08-29T06:22:56.648Z,5.56
2022-08-29T06:24:01.553Z,5.73
2022-08-29T06:25:35.173Z,5.44
2022-08-29T06:26:14.884Z,5.52
2022-08-29T06:27:18.593Z,5.79
2022-08-29T06:28:23.978Z,5.69
2022-08-29T06:29:28.424Z,5.80
2022-08-29T06:30:34.223Z,5.81
2022-08-29T06:31:39.253Z,5.52
2022-08-29T06:32:46.789Z,5.49
2022-08-29T06:33:55.428Z,6.63
2022-08-29T06:35:01.405Z,5.92
2022-08-29T06:36:09.134Z,5.81
2022-08-29T06:37:14.902Z,6.04
2022-08-29T06:38:18.991Z,5.73
2022-08-29T06:39:23.368Z,5.65
2022-08-29T06:40:30.114Z,5.86
2022-08-29T06:41:35.631Z,6.05
2022-08-29T06:42:40.311Z,5.72
2022-08-29T06:43:47.992Z,6.07
2022-08-29T06:44:55.239Z,5.98
2022-08-29T06:45:59.167Z,6.06
2022-08-29T06:47:03.711Z,6.17
2022-08-29T06:48:07.231Z,5.69
2022-08-29T06:49:14.042Z,6.13
2022-08-29T06:50:20.247Z,6.57
2022-08-29T06:51:25.224Z,5.86
2022-08-29T06:52:30.197Z,5.97
2022-08-29T06:53:37.449Z,6.00
2022-08-29T06:54:41.676Z,5.94
2022-08-29T06:55:45.285Z,6.13
2022-08-29T06:56:52.444Z,6.11
2022-08-29T06:57:56.476Z,6.19
2022-08-29T06:59:01.709Z,7.06
2022-08-29T07:00:16.883Z,6.79
2022-08-29T07:01:19.242Z,5.88
2022-08-29T07:02:23.267Z,5.79
2022-08-29T07:03:33.981Z,5.96
2022-08-29T07:04:38.155Z,6.09
2022-08-29T07:05:43.140Z,6.71
2022-08-29T07:06:49.865Z,6.37
2022-08-29T07:07:55.556Z,6.54
2022-08-29T07:09:01.607Z,6.11
2022-08-29T07:10:06.309Z,6.46
2022-08-29T07:11:11.284Z,5.92
2022-08-29T07:12:16.566Z,6.35
2022-08-29T07:13:20.747Z,5.81
2022-08-29T07:14:25.436Z,6.23
2022-08-29T07:15:28.058Z,6.13
2022-08-29T07:16:36.308Z,6.13
2022-08-29T07:17:40.786Z,6.24
2022-08-29T07:18:46.949Z,6.21
2022-08-29T07:19:50.233Z,6.13
2022-08-29T07:20:58.644Z,6.39
2022-08-29T07:47:08.134Z,7.32
2022-08-29T07:48:12.861Z,7.01
2022-08-29T07:49:16.498Z,7.55
2022-08-29T07:50:22.061Z,7.39
2022-08-29T07:51:27.441Z,7.35
2022-08-29T07:52:37.979Z,7.39
2022-08-29T07:53:43.536Z,7.12
2022-08-29T07:54:47.310Z,8.04
2022-08-29T07:55:52.291Z,7.32
2022-08-29T07:57:01.378Z,7.34
2022-08-29T07:58:06.576Z,7.28
2022-08-29T07:59:10.779Z,7.16
2022-08-29T08:00:15.535Z,7.04
2022-08-29T08:01:21.538Z,7.71
2022-08-29T08:02:25.308Z,7.83
2022-08-29T08:03:29.561Z,7.45
2022-08-29T08:04:32.660Z,7.12
2022-08-29T08:05:38.698Z,7.19
2022-08-29T08:06:42.727Z,7.48
2022-08-29T08:07:48.753Z,7.52
2022-08-29T08:08:56.873Z,7.74
2022-08-29T08:10:00.970Z,8.01
2022-08-29T08:11:15.708Z,7.74
2022-08-29T08:12:19.436Z,7.88
2022-08-29T08:13:23.981Z,7.58
2022-08-29T08:14:35.082Z,7.91
2022-08-29T08:15:34.341Z,7.72
2022-08-29T08:16:38.231Z,7.92
2022-08-29T08:17:48.534Z,7.81
2022-08-29T08:18:53.274Z,8.57
2022-08-29T08:19:57.228Z,7.76
2022-08-29T08:21:01.779Z,8.80
2022-08-29T08:22:05.460Z,7.77
2022-08-29T08:23:14.864Z,7.69
2022-08-29T08:24:22.526Z,7.98
2022-08-29T08:25:26.177Z,7.69
2022-08-29T08:26:32.985Z,8.63
2022-08-29T08:27:41.065Z,7.37
2022-08-29T08:28:42.540Z,8.16
2022-08-29T08:29:45.369Z,7.21
2022-08-29T08:30:49.065Z,7.94
2022-08-29T08:31:52.856Z,7.94
2022-08-29T08:32:56.513Z,8.00
2022-08-29T08:34:01.475Z,8.10
2022-08-29T08:35:06.935Z,7.64
2022-08-29T08:36:20.757Z,8.19
2022-08-29T08:37:27.796Z,7.99
2022-08-29T08:38:29.540Z,8.54
2022-08-29T08:39:32.183Z,7.70
2022-08-29T08:40:39.844Z,7.85
2022-08-29T08:41:56.559Z,8.16
2022-08-29T08:43:03.564Z,7.67
2022-08-29T08:44:28.171Z,8.18
2022-08-29T08:45:40.788Z,8.31
2022-08-29T08:46:51.207Z,8.17
2022-08-29T08:48:08.127Z,8.14
2022-08-29T08:49:16.399Z,8.31
2022-08-29T08:50:42.983Z,8.09
2022-08-29T08:51:52.763Z,8.51
2022-08-29T08:53:09.127Z,8.52
2022-08-29T08:54:16.068Z,7.97
2022-08-29T08:55:32.369Z,8.58
2022-08-29T08:56:48.070Z,8.53
2022-08-29T08:57:55.615Z,8.73
2022-08-29T08:59:17.762Z,8.55
2022-08-29T09:00:24.699Z,8.83
2022-08-29T09:01:35.990Z,7.98
2022-08-29T09:03:07.453Z,8.16
2022-08-29T09:04:21.665Z,7.95
2022-08-29T09:05:39.502Z,8.06
2022-08-29T09:07:18.213Z,7.96
2022-08-29T09:08:44.103Z,8.69
2022-08-29T09:10:05.540Z,8.32
2022-08-29T09:11:29.133Z,8.70
2022-08-29T09:12:51.354Z,8.82
2022-08-29T09:14:14.643Z,8.73
2022-08-29T09:15:24.798Z,8.24
2022-08-29T09:16:41.809Z,8.23
2022-08-29T09:17:54.514Z,8.28
2022-08-29T09:19:03.760Z,8.28
2022-08-29T09:20:11.167Z,8.69
2022-08-29T09:21:39.986Z,8.54
2022-08-29T09:22:33.140Z,8.81
2022-08-29T09:24:01.224Z,8.33
2022-08-29T09:25:08.705Z,8.08
2022-08-29T09:26:15.603Z,7.91
2022-08-29T09:27:23.713Z,7.92
2022-08-29T09:28:30.486Z,7.93
2022-08-29T09:29:36.684Z,8.67
2022-08-29T09:30:48.057Z,8.62
2022-08-29T09:33:30.188Z,8.23
2022-08-29T09:35:04.395Z,8.48
2022-08-29T09:35:49.215Z,8.18
2022-08-29T09:36:57.492Z,8.03
2022-08-29T09:39:25.389Z,8.23
2022-08-29T09:40:51.153Z,8.74
2022-08-29T09:42:14.249Z,7.99
2022-08-29T09:43:21.473Z,7.82
2022-08-29T09:44:31.137Z,8.03
2022-08-29T09:45:34.336Z,7.86
2022-08-29T09:46:38.712Z,8.32
2022-08-29T09:47:41.376Z,7.88
2022-08-29T09:48:57.658Z,7.91
2022-08-29T09:50:24.710Z,8.08
2022-08-29T09:51:36.874Z,8.03
2022-08-29T09:53:01.681Z,7.57
2022-08-29T09:54:19.685Z,7.49
2022-08-29T09:55:45.301Z,7.62
2022-08-29T09:57:06.935Z,7.45
2022-08-29T09:58:20.442Z,7.78
2022-08-29T09:59:31.148Z,8.35
2022-08-29T10:00:45.280Z,8.01
2022-08-29T10:01:53.263Z,7.92
2022-08-29T10:03:03.908Z,8.08
2022-08-29T10:04:08.664Z,8.08
2022-08-29T10:05:44.053Z,8.08
2022-08-29T10:06:54.151Z,7.73
2022-08-29T10:08:07.750Z,7.65
2022-08-29T10:09:16.696Z,7.65
2022-08-29T10:10:23.980Z,7.02
2022-08-29T10:11:55.739Z,7.69
2022-08-29T10:13:07.540Z,7.67
2022-08-29T10:14:23.915Z,7.60
2022-08-29T10:15:51.694Z,7.29
2022-08-29T10:16:56.996Z,7.91
2022-08-29T10:18:29.347Z,7.21
2022-08-29T10:19:34.549Z,7.39
2022-08-29T10:21:11.326Z,8.01
2022-08-29T10:22:33.913Z,7.27
2022-08-29T10:23:53.705Z,7.23
2022-08-29T10:25:03.728Z,7.32
2022-08-29T10:26:14.622Z,6.96
2022-08-29T10:28:42.972Z,6.84
2022-08-29T10:31:10.496Z,6.07
2022-08-29T10:32:43.055Z,5.73
2022-08-29T10:33:54.704Z,5.69
2022-08-29T10:35:17.230Z,6.22
2022-08-29T10:36:35.302Z,6.70
2022-08-29T10:37:44.693Z,6.42
2022-08-29T10:39:10.052Z,5.77
2022-08-29T10:41:50.590Z,5.89
2022-08-29T10:43:00.905Z,6.07
2022-08-29T10:44:26.678Z,6.30
2022-08-29T10:45:37.640Z,6.03
2022-08-29T10:48:00.944Z,5.96
2022-08-29T10:49:26.521Z,6.31
2022-08-29T10:50:44.981Z,6.24
2022-08-29T10:52:04.839Z,5.67
2022-08-29T10:53:17.158Z,6.04
2022-08-29T10:54:40.645Z,5.77
2022-08-29T10:55:51.475Z,6.73
2022-08-29T10:56:58.030Z,6.12
2022-08-29T10:58:12.586Z,6.06
2022-08-29T10:59:30.394Z,6.19
2022-08-29T11:00:47.070Z,6.10
2022-08-29T11:01:54.766Z,6.22
2022-08-29T11:03:11.743Z,6.38
2022-08-29T11:04:40.391Z,6.41
2022-08-29T11:05:47.613Z,6.13
2022-08-29T11:07:05.807Z,5.72
2022-08-29T11:08:18.185Z,6.57
2022-08-29T11:09:51.530Z,6.76
2022-08-29T11:10:55.726Z,6.53
2022-08-29T11:12:19.093Z,6.41
2022-08-29T11:13:29.332Z,6.17
2022-08-29T11:14:37.714Z,5.99
2022-08-29T11:15:45.718Z,5.73
2022-08-29T11:16:55.399Z,5.67
2022-08-29T11:18:11.961Z,6.26
2022-08-29T11:19:37.380Z,5.94
2022-08-29T11:20:45.425Z,5.88
2022-08-29T11:22:11.213Z,6.89
2022-08-29T11:23:21.338Z,5.95
2022-08-29T11:24:32.922Z,5.94
2022-08-29T11:25:37.152Z,6.02
2022-08-29T11:26:47.545Z,6.56
2022-08-29T11:28:08.642Z,5.85
2022-08-29T11:29:25.201Z,6.34
2022-08-29T11:30:36.333Z,6.32
2022-08-29T11:31:59.873Z,6.23
2022-08-29T11:33:16.023Z,6.88
2022-08-29T11:34:50.159Z,6.48
2022-08-29T11:36:14.503Z,6.93
2022-08-29T11:37:45.642Z,6.52
2022-08-29T11:39:20.367Z,6.59
2022-08-29T11:42:15.266Z,6.39
2022-08-29T11:43:26.804Z,6.58
2022-08-29T11:44:34.109Z,7.02
2022-08-29T11:45:40.817Z,6.84
2022-08-29T11:46:53.605Z,6.33
2022-08-29T11:48:01.194Z,6.43
2022-08-29T11:49:31.127Z,5.80
2022-08-29T11:50:39.814Z,6.38
2022-08-29T11:51:43.847Z,6.17
2022-08-29T11:53:09.319Z,6.47
2022-08-29T11:54:29.057Z,6.42
2022-08-29T11:55:42.376Z,6.39
2022-08-29T11:56:46.889Z,6.08
2022-08-29T11:59:04.369Z,6.26
2022-08-29T12:00:11.898Z,5.66
2022-08-29T12:01:42.996Z,6.21
2022-08-29T12:02:49.058Z,6.49
2022-08-29T12:03:56.930Z,6.07
2022-08-29T12:05:06.741Z,5.96
2022-08-29T12:06:37.094Z,6.23
2022-08-29T12:07:58.512Z,6.27
2022-08-29T12:09:17.381Z,5.99
2022-08-29T12:10:24.927Z,5.67
2022-08-29T12:11:58.210Z,5.96
2022-08-29T12:13:06.364Z,6.09
2022-08-29T12:14:09.109Z,5.70
2022-08-29T12:15:34.029Z,6.42
2022-08-29T12:16:51.448Z,6.02
2022-08-29T12:18:02.857Z,6.06
2022-08-29T12:19:04.962Z,6.09
2022-08-29T12:20:30.920Z,6.15
2022-08-29T12:21:41.502Z,6.26
2022-08-29T12:24:35.180Z,6.04
2022-08-29T12:25:55.262Z,6.43
2022-08-29T12:26:54.684Z,6.53
2022-08-29T12:28:02.892Z,5.99
2022-08-29T12:29:10.582Z,6.10
2022-08-29T12:30:13.968Z,6.31
2022-08-29T12:31:21.591Z,5.92
2022-08-29T12:32:32.151Z,5.99
2022-08-29T12:33:59.084Z,6.26
2022-08-29T12:35:34.489Z,5.93
2022-08-29T12:36:52.577Z,6.53
2022-08-29T12:38:03.284Z,6.19
2022-08-29T12:39:19.737Z,6.22
2022-08-29T12:42:10.830Z,6.01
2022-08-29T12:43:32.764Z,6.21
2022-08-29T12:44:42.928Z,6.03
2022-08-29T12:45:49.724Z,5.84
2022-08-29T12:47:03.191Z,5.82
2022-08-29T12:48:10.459Z,6.26
2022-08-29T12:49:27.880Z,6.29
2022-08-29T12:50:37.230Z,6.14
2022-08-29T12:51:43.324Z,6.33
2022-08-29T12:53:05.574Z,5.96
2022-08-29T12:54:12.624Z,6.43
2022-08-29T12:55:29.098Z,6.38
2022-08-29T12:56:35.586Z,6.92
2022-08-29T12:57:41.594Z,6.32
2022-08-29T12:58:54.874Z,5.89
2022-08-29T13:00:08.814Z,6.18
2022-08-29T13:01:31.696Z,6.54
2022-08-29T13:04:04.148Z,6.31
2022-08-29T13:05:28.416Z,6.47
2022-08-29T13:06:31.408Z,5.54
2022-08-29T13:07:36.091Z,6.04
2022-08-29T13:08:40.617Z,5.65
2022-08-29T13:09:56.785Z,6.09
2022-08-29T13:12:38.560Z,6.02
2022-08-29T13:13:44.252Z,5.38
2022-08-29T13:14:50.513Z,6.22
2022-08-29T13:15:55.603Z,5.61
2022-08-29T13:16:59.858Z,5.83
2022-08-29T13:18:03.914Z,6.28
2022-08-29T13:19:22.247Z,5.99
2022-08-29T13:20:43.522Z,6.11
2022-08-29T13:21:47.264Z,6.28
2022-08-29T13:22:50.941Z,6.31
2022-08-29T13:25:17.809Z,6.32
2022-08-29T13:26:27.286Z,6.07
2022-08-29T13:27:34.207Z,5.46
2022-08-29T13:30:24.593Z,5.92
2022-08-29T13:31:30.721Z,5.87
2022-08-29T13:32:34.972Z,5.75
2022-08-29T13:33:42.727Z,5.54
2022-08-29T13:36:51.046Z,5.46
2022-08-29T13:39:48.893Z,5.21
2022-08-29T13:40:57.505Z,5.56
2022-08-29T13:42:06.306Z,6.17
2022-08-29T13:43:33.920Z,6.18
2022-08-29T13:44:41.203Z,5.92
2022-08-29T13:45:47.819Z,5.61
2022-08-29T13:46:53.985Z,5.50
2022-08-29T13:48:01.253Z,5.74
2022-08-29T13:49:04.707Z,6.11
2022-08-29T13:50:12.663Z,5.61
2022-08-29T13:51:18.319Z,5.97
2022-08-29T13:52:23.227Z,5.72
2022-08-29T13:53:29.132Z,5.74
2022-08-29T13:54:34.551Z,5.56
2022-08-29T13:55:40.675Z,5.71
2022-08-29T13:56:59.688Z,5.87
2022-08-29T13:58:06.007Z,5.95
2022-08-29T13:59:12.440Z,5.23
2022-08-29T14:00:18.595Z,6.08
2022-08-29T14:02:08.573Z,5.58
2022-08-29T14:02:32.324Z,4.97
2022-08-29T14:03:37.520Z,4.94
2022-08-29T14:04:50.199Z,5.16
2022-08-29T14:05:57.753Z,5.36
2022-08-29T14:07:03.211Z,5.29
2022-08-29T14:08:08.911Z,5.64
2022-08-29T14:09:19.612Z,4.98
2022-08-29T14:10:24.502Z,5.75
2022-08-29T14:11:31.991Z,5.24
2022-08-29T14:12:37.547Z,5.61
2022-08-29T14:13:42.559Z,5.25
2022-08-29T14:14:48.111Z,5.41
2022-08-29T14:15:52.079Z,5.74
2022-08-29T14:16:57.512Z,5.75
2022-08-29T14:18:05.526Z,5.66
2022-08-29T14:19:10.229Z,5.45
2022-08-29T14:20:14.976Z,5.21
2022-08-29T14:21:22.093Z,5.48
2022-08-29T14:22:25.946Z,5.59
2022-08-29T14:23:29.932Z,5.07
2022-08-29T14:24:35.737Z,5.39
2022-08-29T14:25:38.407Z,5.51
2022-08-29T14:26:46.443Z,5.45
2022-08-29T14:27:55.147Z,5.40
2022-08-29T14:29:03.517Z,5.31
2022-08-29T14:30:10.735Z,5.76
2022-08-29T14:31:13.370Z,5.27
2022-08-29T14:32:16.987Z,5.71
2022-08-29T14:33:21.041Z,5.22
2022-08-29T14:34:25.390Z,5.57
2022-08-29T14:35:33.038Z,5.70
2022-08-29T14:36:47.495Z,5.04
2022-08-29T14:37:45.168Z,5.54
2022-08-29T14:38:48.567Z,5.04
2022-08-29T14:39:51.585Z,5.79
2022-08-29T14:41:02.089Z,5.29
2022-08-29T14:42:06.476Z,5.76
2022-08-29T14:43:10.022Z,5.46
2022-08-29T14:44:20.237Z,5.10
2022-08-29T14:45:25.735Z,5.31
2022-08-29T14:46:30.528Z,5.59
2022-08-29T14:47:34.468Z,5.42
2022-08-29T14:48:39.154Z,5.44
2022-08-29T14:49:46.595Z,5.46
2022-08-29T14:50:50.833Z,5.57
2022-08-29T14:51:57.206Z,5.06
2022-08-29T14:53:02.247Z,5.21
2022-08-29T14:54:06.054Z,5.33
2022-08-29T14:55:13.962Z,5.01
2022-08-29T14:56:37.480Z,5.16
2022-08-29T14:57:24.422Z,5.03
2022-08-29T14:58:28.210Z,5.31
2022-08-29T14:59:38.034Z,5.12
2022-08-29T15:00:43.167Z,5.78
2022-08-29T15:01:52.947Z,5.19
2022-08-29T15:02:54.205Z,5.28
2022-08-29T15:03:59.014Z,4.76
2022-08-29T15:05:05.283Z,5.58
2022-08-29T15:06:08.450Z,4.74
2022-08-29T15:07:14.107Z,4.97
2022-08-29T15:08:19.004Z,4.92
2022-08-29T15:09:23.308Z,5.14
2022-08-29T15:10:28.215Z,4.96
2022-08-29T15:11:37.752Z,5.22
2022-08-29T15:12:41.803Z,4.83
2022-08-29T15:13:45.371Z,4.93
2022-08-29T15:14:52.118Z,4.71
2022-08-29T15:15:56.172Z,5.39
2022-08-29T15:17:01.582Z,4.81
2022-08-29T15:18:12.254Z,4.54
2022-08-29T15:19:45.114Z,4.94
2022-08-29T15:20:38.780Z,4.72
2022-08-29T15:21:27.179Z,4.99
2022-08-29T15:22:36.640Z,4.61
2022-08-29T15:23:43.077Z,5.23
2022-08-29T15:24:47.649Z,4.99
2022-08-29T15:25:52.358Z,5.06
2022-08-29T15:26:56.085Z,4.50
2022-08-29T15:27:59.557Z,5.29
2022-08-29T15:29:03.653Z,6.08
2022-08-29T15:30:09.662Z,4.76
2022-08-29T15:31:13.613Z,4.63
2022-08-29T15:32:20.111Z,5.04
2022-08-29T15:33:25.723Z,4.88
2022-08-29T15:34:36.390Z,5.00
2022-08-29T15:36:50.045Z,5.19
2022-08-29T15:37:53.839Z,4.83
2022-08-29T15:38:57.692Z,4.86
2022-08-29T15:40:01.413Z,4.78
2022-08-29T15:41:04.596Z,4.80
2022-08-29T15:42:11.866Z,4.99
2022-08-29T15:43:18.268Z,5.14
2022-08-29T15:44:29.371Z,5.14
2022-08-29T15:45:33.240Z,5.37
2022-08-29T15:46:37.784Z,4.99
2022-08-29T15:47:46.614Z,4.96
2022-08-29T15:48:52.158Z,4.87
2022-08-29T15:49:56.138Z,4.99
2022-08-29T15:51:04.673Z,4.76
2022-08-29T15:52:08.229Z,4.63
2022-08-29T15:53:13.201Z,5.00
2022-08-29T15:54:17.335Z,4.80
2022-08-29T15:55:21.852Z,4.76
2022-08-29T15:56:27.299Z,4.63
2022-08-29T15:57:30.099Z,4.55
2022-08-29T15:58:34.362Z,4.69
2022-08-29T15:59:57.158Z,4.37
2022-08-29T16:00:42.572Z,4.38
2022-08-29T16:01:49.248Z,4.31
2022-08-29T16:02:53.266Z,4.20
2022-08-29T16:03:57.118Z,4.70
2022-08-29T16:05:02.460Z,4.52
2022-08-29T16:06:05.933Z,4.18